sensor_id;sensor_type;location;lat;lon;timestamp;pressure;altitude;pressure_sealevel;temperature;humidity
29909;BME280;36247;51.952;6.146;2023-03-15T00:00:02;101016.63;;;2.44;100.00
29909;BME280;36247;51.952;6.146;2023-03-15T00:02:29;101030.16;;;2.36;100.00
29909;BME280;36247;51.952;6.146;2023-03-15T00:04:55;101031.06;;;2.36;100.00
29909;BME280;36247;51.952;6.146;2023-03-15T00:07:20;101035.44;;;2.37;100.00
29909;BME280;36247;51.952;6.146;2023-03-15T00:09:51;101039.13;;;2.41;100.00
29909;BME280;36247;51.952;6.146;2023-03-15T00:12:17;101034.25;;;2.31;100.00
29909;BME280;36247;51.952;6.146;2023-03-15T00:14:42;101035.97;;;2.12;100.00
29909;BME280;36247;51.952;6.146;2023-03-15T00:17:08;101033.16;;;2.09;100.00
29909;BME280;36247;51.952;6.146;2023-03-15T00:19:33;101022.88;;;1.96;100.00
29909;BME280;36247;51.952;6.146;2023-03-15T00:21:59;101032.72;;;1.83;100.00
29909;BME280;36247;51.952;6.146;2023-03-15T00:24:24;101036.47;;;1.88;100.00
29909;BME280;36247;51.952;6.146;2023-03-15T00:26:50;101034.84;;;1.90;100.00
29909;BME280;36247;51.952;6.146;2023-03-15T00:29:15;101041.56;;;1.69;100.00
29909;BME280;36247;51.952;6.146;2023-03-15T00:31:40;101037.47;;;1.74;100.00
29909;BME280;36247;51.952;6.146;2023-03-15T00:34:06;101029.47;;;1.71;100.00
29909;BME280;36247;51.952;6.146;2023-03-15T00:36:31;101035.34;;;1.67;100.00
29909;BME280;36247;51.952;6.146;2023-03-15T00:38:57;101031.03;;;1.67;100.00
29909;BME280;36247;51.952;6.146;2023-03-15T00:41:23;101040.66;;;1.68;100.00
29909;BME280;36247;51.952;6.146;2023-03-15T00:43:48;101033.38;;;1.63;100.00
29909;BME280;36247;51.952;6.146;2023-03-15T00:46:15;101054.09;;;1.59;100.00
29909;BME280;36247;51.952;6.146;2023-03-15T00:48:41;101056.56;;;1.56;100.00
29909;BME280;36247;51.952;6.146;2023-03-15T00:51:13;101055.75;;;1.57;100.00
29909;BME280;36247;51.952;6.146;2023-03-15T00:53:41;101061.06;;;1.59;100.00
29909;BME280;36247;51.952;6.146;2023-03-15T00:56:09;101060.66;;;1.68;100.00
29909;BME280;36247;51.952;6.146;2023-03-15T00:58:35;101059.09;;;1.55;100.00
29909;BME280;36247;51.952;6.146;2023-03-15T01:01:09;101062.09;;;1.63;100.00
29909;BME280;36247;51.952;6.146;2023-03-15T01:03:36;101060.97;;;1.74;100.00
29909;BME280;36247;51.952;6.146;2023-03-15T01:06:13;101069.22;;;1.82;100.00
29909;BME280;36247;51.952;6.146;2023-03-15T01:08:39;101069.78;;;1.76;100.00
29909;BME280;36247;51.952;6.146;2023-03-15T01:11:08;101065.88;;;1.84;100.00
29909;BME280;36247;51.952;6.146;2023-03-15T01:13:35;101069.78;;;1.76;100.00
29909;BME280;36247;51.952;6.146;2023-03-15T01:16:01;101079.56;;;1.64;100.00
29909;BME280;36247;51.952;6.146;2023-03-15T01:18:27;101080.06;;;1.73;100.00
29909;BME280;36247;51.952;6.146;2023-03-15T01:20:52;101081.47;;;1.66;100.00
29909;BME280;36247;51.952;6.146;2023-03-15T01:23:18;101087.81;;;1.71;100.00
29909;BME280;36247;51.952;6.146;2023-03-15T01:25:45;101090.84;;;1.79;100.00
29909;BME280;36247;51.952;6.146;2023-03-15T01:28:11;101083.75;;;1.76;100.00
29909;BME280;36247;51.952;6.146;2023-03-15T01:30:36;101093.38;;;1.77;100.00
29909;BME280;36247;51.952;6.146;2023-03-15T01:33:02;101085.69;;;1.81;100.00
29909;BME280;36247;51.952;6.146;2023-03-15T01:35:27;101087.66;;;1.68;100.00
29909;BME280;36247;51.952;6.146;2023-03-15T01:37:53;101088.72;;;1.72;100.00
29909;BME280;36247;51.952;6.146;2023-03-15T01:40:19;101097.88;;;1.80;100.00
29909;BME280;36247;51.952;6.146;2023-03-15T01:42:50;101099.66;;;1.81;100.00
29909;BME280;36247;51.952;6.146;2023-03-15T01:48:22;101099.44;;;1.93;100.00
29909;BME280;36247;51.952;6.146;2023-03-15T01:50:51;101101.78;;;1.88;100.00
29909;BME280;36247;51.952;6.146;2023-03-15T01:53:21;101099.75;;;1.99;100.00
29909;BME280;36247;51.952;6.146;2023-03-15T01:55:47;101107.81;;;2.04;100.00
29909;BME280;36247;51.952;6.146;2023-03-15T01:58:16;101108.31;;;1.97;100.00
29909;BME280;36247;51.952;6.146;2023-03-15T02:00:42;101120.41;;;1.94;100.00
29909;BME280;36247;51.952;6.146;2023-03-15T02:03:17;101116.47;;;2.03;100.00
29909;BME280;36247;51.952;6.146;2023-03-15T02:05:51;101112.16;;;2.03;100.00
29909;BME280;36247;51.952;6.146;2023-03-15T02:08:49;101124.38;;;2.04;100.00
29909;BME280;36247;51.952;6.146;2023-03-15T02:11:18;101122.22;;;2.12;100.00
29909;BME280;36247;51.952;6.146;2023-03-15T02:13:47;101122.53;;;2.18;100.00
29909;BME280;36247;51.952;6.146;2023-03-15T02:16:14;101125.88;;;2.16;100.00
29909;BME280;36247;51.952;6.146;2023-03-15T02:18:45;101120.72;;;2.17;100.00
29909;BME280;36247;51.952;6.146;2023-03-15T02:21:39;101128.47;;;2.16;100.00
29909;BME280;36247;51.952;6.146;2023-03-15T02:24:39;101134.75;;;2.19;100.00
29909;BME280;36247;51.952;6.146;2023-03-15T02:27:09;101125.94;;;2.17;100.00
29909;BME280;36247;51.952;6.146;2023-03-15T02:29:35;101126.59;;;2.13;100.00
29909;BME280;36247;51.952;6.146;2023-03-15T02:32:01;101129.06;;;2.10;100.00
29909;BME280;36247;51.952;6.146;2023-03-15T02:34:29;101132.47;;;2.09;100.00
29909;BME280;36247;51.952;6.146;2023-03-15T02:36:56;101129.13;;;2.11;100.00
29909;BME280;36247;51.952;6.146;2023-03-15T02:39:22;101129.22;;;2.13;100.00
29909;BME280;36247;51.952;6.146;2023-03-15T02:41:52;101139.25;;;2.22;100.00
29909;BME280;36247;51.952;6.146;2023-03-15T02:46:51;101139.19;;;2.20;100.00
29909;BME280;36247;51.952;6.146;2023-03-15T02:49:22;101143.44;;;2.18;100.00
29909;BME280;36247;51.952;6.146;2023-03-15T02:51:50;101143.91;;;2.27;100.00
29909;BME280;36247;51.952;6.146;2023-03-15T02:54:15;101156.91;;;2.26;100.00
29909;BME280;36247;51.952;6.146;2023-03-15T02:56:41;101148.97;;;2.24;100.00
29909;BME280;36247;51.952;6.146;2023-03-15T02:59:06;101150.19;;;2.31;100.00
29909;BME280;36247;51.952;6.146;2023-03-15T03:01:32;101159.44;;;2.24;100.00
29909;BME280;36247;51.952;6.146;2023-03-15T03:04:02;101167.94;;;2.20;100.00
29909;BME280;36247;51.952;6.146;2023-03-15T03:06:28;101176.00;;;2.25;100.00
29909;BME280;36247;51.952;6.146;2023-03-15T03:08:53;101180.13;;;2.20;100.00
29909;BME280;36247;51.952;6.146;2023-03-15T03:11:19;101185.59;;;2.24;100.00
29909;BME280;36247;51.952;6.146;2023-03-15T03:13:45;101188.03;;;2.21;100.00
29909;BME280;36247;51.952;6.146;2023-03-15T03:16:10;101201.84;;;2.19;100.00
29909;BME280;36247;51.952;6.146;2023-03-15T03:18:36;101200.34;;;2.24;100.00
29909;BME280;36247;51.952;6.146;2023-03-15T03:21:05;101204.38;;;2.17;100.00
29909;BME280;36247;51.952;6.146;2023-03-15T03:23:33;101212.03;;;2.14;100.00
29909;BME280;36247;51.952;6.146;2023-03-15T03:25:59;101212.13;;;2.16;100.00
29909;BME280;36247;51.952;6.146;2023-03-15T03:28:27;101216.47;;;2.15;100.00
29909;BME280;36247;51.952;6.146;2023-03-15T03:30:54;101220.44;;;2.08;100.00
29909;BME280;36247;51.952;6.146;2023-03-15T03:33:20;101224.53;;;2.03;100.00
29909;BME280;36247;51.952;6.146;2023-03-15T03:35:47;101229.50;;;1.99;100.00
29909;BME280;36247;51.952;6.146;2023-03-15T03:38:13;101231.75;;;1.92;100.00
29909;BME280;36247;51.952;6.146;2023-03-15T03:40:42;101238.00;;;1.94;100.00
29909;BME280;36247;51.952;6.146;2023-03-15T03:43:08;101241.97;;;1.88;100.00
29909;BME280;36247;51.952;6.146;2023-03-15T03:45:34;101247.78;;;1.82;100.00
29909;BME280;36247;51.952;6.146;2023-03-15T03:48:00;101252.00;;;1.80;100.00
29909;BME280;36247;51.952;6.146;2023-03-15T03:50:27;101244.63;;;1.73;100.00
29909;BME280;36247;51.952;6.146;2023-03-15T03:52:53;101242.69;;;1.69;100.00
29909;BME280;36247;51.952;6.146;2023-03-15T03:55:23;101249.34;;;1.64;100.00
29909;BME280;36247;51.952;6.146;2023-03-15T03:57:50;101250.63;;;1.55;100.00
29909;BME280;36247;51.952;6.146;2023-03-15T04:00:29;101259.09;;;1.51;100.00
29909;BME280;36247;51.952;6.146;2023-03-15T04:02:54;101254.75;;;1.52;100.00
29909;BME280;36247;51.952;6.146;2023-03-15T04:05:20;101273.75;;;1.49;100.00
29909;BME280;36247;51.952;6.146;2023-03-15T04:07:46;101284.19;;;1.49;100.00
29909;BME280;36247;51.952;6.146;2023-03-15T04:10:14;101283.13;;;1.46;100.00
29909;BME280;36247;51.952;6.146;2023-03-15T04:12:42;101285.94;;;1.34;100.00
29909;BME280;36247;51.952;6.146;2023-03-15T04:15:10;101294.22;;;1.27;100.00
29909;BME280;36247;51.952;6.146;2023-03-15T04:17:38;101295.03;;;1.26;100.00
29909;BME280;36247;51.952;6.146;2023-03-15T04:20:04;101307.34;;;1.28;100.00
29909;BME280;36247;51.952;6.146;2023-03-15T04:22:35;101306.28;;;1.25;100.00
29909;BME280;36247;51.952;6.146;2023-03-15T04:25:27;101299.69;;;1.16;100.00
29909;BME280;36247;51.952;6.146;2023-03-15T04:28:12;101309.06;;;1.13;100.00
29909;BME280;36247;51.952;6.146;2023-03-15T04:30:41;101305.47;;;1.11;100.00
29909;BME280;36247;51.952;6.146;2023-03-15T04:33:26;101308.78;;;1.08;100.00
29909;BME280;36247;51.952;6.146;2023-03-15T04:36:00;101314.19;;;1.11;100.00
29909;BME280;36247;51.952;6.146;2023-03-15T04:38:54;101313.22;;;1.09;100.00
29909;BME280;36247;51.952;6.146;2023-03-15T04:41:53;101328.69;;;1.06;100.00
29909;BME280;36247;51.952;6.146;2023-03-15T04:44:28;101332.56;;;1.13;100.00
29909;BME280;36247;51.952;6.146;2023-03-15T04:47:13;101336.59;;;1.08;100.00
29909;BME280;36247;51.952;6.146;2023-03-15T04:49:55;101351.53;;;1.10;100.00
29909;BME280;36247;51.952;6.146;2023-03-15T04:52:39;101349.94;;;1.12;100.00
29909;BME280;36247;51.952;6.146;2023-03-15T04:55:18;101338.22;;;1.20;100.00
29909;BME280;36247;51.952;6.146;2023-03-15T04:58:02;101334.81;;;1.21;100.00
29909;BME280;36247;51.952;6.146;2023-03-15T05:00:39;101355.69;;;1.21;100.00
29909;BME280;36247;51.952;6.146;2023-03-15T05:03:25;101346.41;;;1.27;100.00
29909;BME280;36247;51.952;6.146;2023-03-15T05:06:10;101339.31;;;1.24;100.00
29909;BME280;36247;51.952;6.146;2023-03-15T05:09:03;101353.63;;;1.31;100.00
29909;BME280;36247;51.952;6.146;2023-03-15T05:11:44;101356.69;;;1.38;100.00
29909;BME280;36247;51.952;6.146;2023-03-15T05:14:33;101368.13;;;1.26;100.00
29909;BME280;36247;51.952;6.146;2023-03-15T05:17:07;101360.75;;;1.33;100.00
29909;BME280;36247;51.952;6.146;2023-03-15T05:19:51;101372.44;;;1.40;100.00
29909;BME280;36247;51.952;6.146;2023-03-15T05:22:40;101378.84;;;1.30;100.00
29909;BME280;36247;51.952;6.146;2023-03-15T05:25:32;101385.94;;;1.33;100.00
29909;BME280;36247;51.952;6.146;2023-03-15T05:28:36;101400.72;;;1.32;100.00
29909;BME280;36247;51.952;6.146;2023-03-15T05:31:22;101409.66;;;1.36;100.00
29909;BME280;36247;51.952;6.146;2023-03-15T05:34:10;101410.25;;;1.32;100.00
29909;BME280;36247;51.952;6.146;2023-03-15T05:36:54;101411.41;;;1.37;100.00
29909;BME280;36247;51.952;6.146;2023-03-15T05:39:49;101404.84;;;1.29;100.00
29909;BME280;36247;51.952;6.146;2023-03-15T05:42:33;101412.34;;;1.37;100.00
29909;BME280;36247;51.952;6.146;2023-03-15T05:45:18;101413.69;;;1.46;100.00
29909;BME280;36247;51.952;6.146;2023-03-15T05:48:15;101420.25;;;1.39;100.00
29909;BME280;36247;51.952;6.146;2023-03-15T05:51:01;101413.50;;;1.43;100.00
29909;BME280;36247;51.952;6.146;2023-03-15T05:53:26;101424.84;;;1.43;100.00
29909;BME280;36247;51.952;6.146;2023-03-15T05:56:10;101416.22;;;1.44;100.00
29909;BME280;36247;51.952;6.146;2023-03-15T05:59:08;101417.38;;;1.49;100.00
29909;BME280;36247;51.952;6.146;2023-03-15T06:01:54;101423.25;;;1.45;100.00
29909;BME280;36247;51.952;6.146;2023-03-15T06:04:28;101423.78;;;1.54;100.00
29909;BME280;36247;51.952;6.146;2023-03-15T06:06:56;101430.63;;;1.52;100.00
29909;BME280;36247;51.952;6.146;2023-03-15T06:09:22;101434.84;;;1.50;100.00
29909;BME280;36247;51.952;6.146;2023-03-15T06:11:47;101442.78;;;1.52;100.00
29909;BME280;36247;51.952;6.146;2023-03-15T06:14:13;101440.88;;;1.49;100.00
29909;BME280;36247;51.952;6.146;2023-03-15T06:16:45;101448.19;;;1.55;100.00
29909;BME280;36247;51.952;6.146;2023-03-15T06:19:10;101447.28;;;1.54;100.00
29909;BME280;36247;51.952;6.146;2023-03-15T06:21:36;101451.16;;;1.61;100.00
29909;BME280;36247;51.952;6.146;2023-03-15T06:24:07;101458.19;;;1.62;100.00
29909;BME280;36247;51.952;6.146;2023-03-15T06:26:33;101463.94;;;1.56;100.00
29909;BME280;36247;51.952;6.146;2023-03-15T06:29:01;101474.66;;;1.61;100.00
29909;BME280;36247;51.952;6.146;2023-03-15T06:31:27;101475.41;;;1.58;100.00
29909;BME280;36247;51.952;6.146;2023-03-15T06:34:00;101485.19;;;1.63;100.00
29909;BME280;36247;51.952;6.146;2023-03-15T06:36:26;101490.69;;;1.52;100.00
29909;BME280;36247;51.952;6.146;2023-03-15T06:38:51;101490.38;;;1.48;100.00
29909;BME280;36247;51.952;6.146;2023-03-15T06:41:19;101496.53;;;1.48;100.00
29909;BME280;36247;51.952;6.146;2023-03-15T06:43:46;101501.16;;;1.52;100.00
29909;BME280;36247;51.952;6.146;2023-03-15T06:46:13;101495.63;;;1.48;100.00
29909;BME280;36247;51.952;6.146;2023-03-15T06:48:39;101507.34;;;1.54;100.00
29909;BME280;36247;51.952;6.146;2023-03-15T06:51:07;101503.69;;;1.66;100.00
29909;BME280;36247;51.952;6.146;2023-03-15T06:53:33;101504.69;;;1.68;100.00
29909;BME280;36247;51.952;6.146;2023-03-15T06:55:58;101504.78;;;1.69;100.00
29909;BME280;36247;51.952;6.146;2023-03-15T06:58:24;101507.75;;;1.90;100.00
29909;BME280;36247;51.952;6.146;2023-03-15T07:00:49;101517.66;;;1.81;100.00
29909;BME280;36247;51.952;6.146;2023-03-15T07:03:15;101525.50;;;1.81;100.00
29909;BME280;36247;51.952;6.146;2023-03-15T07:05:40;101522.38;;;2.02;100.00
29909;BME280;36247;51.952;6.146;2023-03-15T07:08:06;101525.81;;;2.01;100.00
29909;BME280;36247;51.952;6.146;2023-03-15T07:10:31;101520.03;;;2.06;100.00
29909;BME280;36247;51.952;6.146;2023-03-15T07:12:57;101525.88;;;2.32;100.00
29909;BME280;36247;51.952;6.146;2023-03-15T07:15:22;101540.03;;;2.21;100.00
29909;BME280;36247;51.952;6.146;2023-03-15T07:17:48;101544.19;;;2.32;100.00
29909;BME280;36247;51.952;6.146;2023-03-15T07:20:13;101543.56;;;2.21;100.00
29909;BME280;36247;51.952;6.146;2023-03-15T07:22:39;101553.94;;;2.35;100.00
29909;BME280;36247;51.952;6.146;2023-03-15T07:25:05;101558.06;;;2.16;100.00
29909;BME280;36247;51.952;6.146;2023-03-15T07:27:32;101556.56;;;2.35;100.00
29909;BME280;36247;51.952;6.146;2023-03-15T07:29:57;101557.97;;;2.59;100.00
29909;BME280;36247;51.952;6.146;2023-03-15T07:32:23;101561.56;;;2.76;100.00
29909;BME280;36247;51.952;6.146;2023-03-15T07:34:48;101551.72;;;2.72;100.00
29909;BME280;36247;51.952;6.146;2023-03-15T07:37:14;101565.91;;;2.61;100.00
29909;BME280;36247;51.952;6.146;2023-03-15T07:39:39;101569.69;;;2.66;100.00
29909;BME280;36247;51.952;6.146;2023-03-15T07:42:05;101575.00;;;2.68;100.00
29909;BME280;36247;51.952;6.146;2023-03-15T07:44:38;101578.16;;;2.77;100.00
29909;BME280;36247;51.952;6.146;2023-03-15T07:47:03;101581.97;;;2.98;100.00
29909;BME280;36247;51.952;6.146;2023-03-15T07:49:29;101586.84;;;3.07;100.00
29909;BME280;36247;51.952;6.146;2023-03-15T07:51:55;101584.22;;;3.07;100.00
29909;BME280;36247;51.952;6.146;2023-03-15T07:54:21;101597.94;;;3.18;100.00
29909;BME280;36247;51.952;6.146;2023-03-15T07:56:47;101594.19;;;3.46;100.00
29909;BME280;36247;51.952;6.146;2023-03-15T07:59:12;101602.41;;;3.52;100.00
29909;BME280;36247;51.952;6.146;2023-03-15T08:01:37;101608.31;;;3.97;100.00
29909;BME280;36247;51.952;6.146;2023-03-15T08:04:03;101604.66;;;4.28;100.00
29909;BME280;36247;51.952;6.146;2023-03-15T08:06:28;101613.94;;;4.21;100.00
29909;BME280;36247;51.952;6.146;2023-03-15T08:08:54;101604.28;;;4.55;100.00
29909;BME280;36247;51.952;6.146;2023-03-15T08:11:19;101609.97;;;4.64;100.00
29909;BME280;36247;51.952;6.146;2023-03-15T08:13:45;101617.19;;;4.68;100.00
29909;BME280;36247;51.952;6.146;2023-03-15T08:16:10;101616.91;;;4.80;100.00
29909;BME280;36247;51.952;6.146;2023-03-15T08:18:36;101622.31;;;4.83;100.00
29909;BME280;36247;51.952;6.146;2023-03-15T08:21:01;101625.72;;;4.64;100.00
29909;BME280;36247;51.952;6.146;2023-03-15T08:23:28;101634.47;;;4.81;100.00
29909;BME280;36247;51.952;6.146;2023-03-15T08:25:53;101631.63;;;4.94;100.00
29909;BME280;36247;51.952;6.146;2023-03-15T08:28:19;101633.25;;;4.92;100.00
29909;BME280;36247;51.952;6.146;2023-03-15T08:30:44;101635.38;;;4.82;100.00
29909;BME280;36247;51.952;6.146;2023-03-15T08:33:10;101642.28;;;4.98;100.00
29909;BME280;36247;51.952;6.146;2023-03-15T08:35:36;101648.28;;;4.95;100.00
29909;BME280;36247;51.952;6.146;2023-03-15T08:38:02;101652.34;;;5.24;100.00
29909;BME280;36247;51.952;6.146;2023-03-15T08:40:28;101651.34;;;5.04;100.00
29909;BME280;36247;51.952;6.146;2023-03-15T08:42:55;101654.59;;;4.99;100.00
29909;BME280;36247;51.952;6.146;2023-03-15T08:45:22;101649.78;;;4.90;100.00
29909;BME280;36247;51.952;6.146;2023-03-15T08:47:57;101649.72;;;5.24;100.00
29909;BME280;36247;51.952;6.146;2023-03-15T08:50:24;101650.38;;;5.38;100.00
29909;BME280;36247;51.952;6.146;2023-03-15T08:52:50;101651.03;;;5.52;100.00
29909;BME280;36247;51.952;6.146;2023-03-15T08:55:15;101652.00;;;5.92;100.00
29909;BME280;36247;51.952;6.146;2023-03-15T08:57:41;101657.19;;;5.90;100.00
29909;BME280;36247;51.952;6.146;2023-03-15T09:00:08;101654.50;;;6.28;100.00
29909;BME280;36247;51.952;6.146;2023-03-15T09:02:34;101664.94;;;6.46;100.00
29909;BME280;36247;51.952;6.146;2023-03-15T09:04:59;101663.53;;;6.33;100.00
29909;BME280;36247;51.952;6.146;2023-03-15T09:07:25;101675.00;;;6.55;100.00
29909;BME280;36247;51.952;6.146;2023-03-15T09:09:50;101675.00;;;6.76;100.00
29909;BME280;36247;51.952;6.146;2023-03-15T09:12:19;101667.50;;;7.27;100.00
29909;BME280;36247;51.952;6.146;2023-03-15T09:14:45;101671.63;;;7.66;100.00
29909;BME280;36247;51.952;6.146;2023-03-15T09:17:10;101670.75;;;7.43;100.00
29909;BME280;36247;51.952;6.146;2023-03-15T09:19:36;101669.50;;;7.78;100.00
29909;BME280;36247;51.952;6.146;2023-03-15T09:22:02;101673.22;;;8.54;100.00
29909;BME280;36247;51.952;6.146;2023-03-15T09:24:27;101676.66;;;8.05;100.00
29909;BME280;36247;51.952;6.146;2023-03-15T09:26:52;101680.63;;;7.48;100.00
29909;BME280;36247;51.952;6.146;2023-03-15T09:29:18;101674.13;;;7.17;100.00
29909;BME280;36247;51.952;6.146;2023-03-15T09:31:43;101678.41;;;7.82;100.00
29909;BME280;36247;51.952;6.146;2023-03-15T09:34:09;101678.34;;;7.80;100.00
29909;BME280;36247;51.952;6.146;2023-03-15T09:36:34;101686.97;;;7.53;100.00
29909;BME280;36247;51.952;6.146;2023-03-15T09:39:00;101679.38;;;7.61;100.00
29909;BME280;36247;51.952;6.146;2023-03-15T09:41:51;101681.72;;;7.99;100.00
29909;BME280;36247;51.952;6.146;2023-03-15T09:47:34;101680.06;;;7.55;100.00
29909;BME280;36247;51.952;6.146;2023-03-15T09:52:55;101685.16;;;9.49;100.00
29909;BME280;36247;51.952;6.146;2023-03-15T09:55:27;101685.25;;;8.72;100.00
29909;BME280;36247;51.952;6.146;2023-03-15T09:57:59;101689.44;;;7.49;100.00
29909;BME280;36247;51.952;6.146;2023-03-15T10:00:44;101696.34;;;7.03;100.00
29909;BME280;36247;51.952;6.146;2023-03-15T10:03:31;101696.63;;;7.09;100.00
29909;BME280;36247;51.952;6.146;2023-03-15T10:06:16;101696.53;;;8.19;100.00
29909;BME280;36247;51.952;6.146;2023-03-15T10:08:44;101690.47;;;9.78;100.00
29909;BME280;36247;51.952;6.146;2023-03-15T10:13:57;101688.13;;;9.87;91.42
29909;BME280;36247;51.952;6.146;2023-03-15T10:16:43;101684.78;;;11.23;94.91
29909;BME280;36247;51.952;6.146;2023-03-15T10:19:49;101691.91;;;10.56;97.24
29909;BME280;36247;51.952;6.146;2023-03-15T10:22:33;101687.59;;;10.61;90.75
29909;BME280;36247;51.952;6.146;2023-03-15T10:25:15;101692.72;;;11.22;82.22
29909;BME280;36247;51.952;6.146;2023-03-15T10:27:44;101691.16;;;11.68;87.88
29909;BME280;36247;51.952;6.146;2023-03-15T10:30:20;101694.03;;;12.17;83.66
29909;BME280;36247;51.952;6.146;2023-03-15T10:32:55;101687.06;;;12.68;71.63
29909;BME280;36247;51.952;6.146;2023-03-15T10:35:22;101702.03;;;12.19;71.42
29909;BME280;36247;51.952;6.146;2023-03-15T10:37:48;101690.31;;;11.69;75.24
29909;BME280;36247;51.952;6.146;2023-03-15T10:40:14;101696.97;;;12.31;63.95
29909;BME280;36247;51.952;6.146;2023-03-15T10:42:46;101689.03;;;13.29;57.09
29909;BME280;36247;51.952;6.146;2023-03-15T10:45:23;101681.97;;;12.80;58.34
29909;BME280;36247;51.952;6.146;2023-03-15T10:47:50;101676.06;;;13.50;65.61
29909;BME280;36247;51.952;6.146;2023-03-15T10:50:36;101686.28;;;13.84;55.65
29909;BME280;36247;51.952;6.146;2023-03-15T10:53:10;101697.88;;;12.77;52.93
29909;BME280;36247;51.952;6.146;2023-03-15T10:55:44;101703.91;;;12.68;54.51
29909;BME280;36247;51.952;6.146;2023-03-15T11:01:07;101700.22;;;14.30;48.73
29909;BME280;36247;51.952;6.146;2023-03-15T11:03:36;101703.91;;;12.68;48.16
29909;BME280;36247;51.952;6.146;2023-03-15T11:06:06;101720.28;;;12.03;50.79
29909;BME280;36247;51.952;6.146;2023-03-15T11:08:42;101728.03;;;11.56;50.58
29909;BME280;36247;51.952;6.146;2023-03-15T11:11:08;101724.63;;;11.25;49.79
29909;BME280;36247;51.952;6.146;2023-03-15T11:13:36;101741.22;;;9.37;52.78
29909;BME280;36247;51.952;6.146;2023-03-15T11:16:22;101743.25;;;9.18;59.87
29909;BME280;36247;51.952;6.146;2023-03-15T11:18:54;101734.16;;;12.31;49.46
29909;BME280;36247;51.952;6.146;2023-03-15T11:21:23;101730.84;;;12.41;44.94
29909;BME280;36247;51.952;6.146;2023-03-15T11:23:50;101732.94;;;12.58;48.74
29909;BME280;36247;51.952;6.146;2023-03-15T11:26:22;101741.84;;;12.17;49.82
29909;BME280;36247;51.952;6.146;2023-03-15T11:28:55;101742.09;;;12.72;48.78
29909;BME280;36247;51.952;6.146;2023-03-15T11:31:25;101746.22;;;13.02;49.95
29909;BME280;36247;51.952;6.146;2023-03-15T11:34:05;101734.88;;;13.66;49.04
29909;BME280;36247;51.952;6.146;2023-03-15T11:36:34;101745.13;;;12.92;47.22
29909;BME280;36247;51.952;6.146;2023-03-15T11:39:02;101749.06;;;13.65;48.51
29909;BME280;36247;51.952;6.146;2023-03-15T11:41:41;101750.56;;;14.76;44.87
29909;BME280;36247;51.952;6.146;2023-03-15T11:44:21;101750.59;;;13.50;47.81
29909;BME280;36247;51.952;6.146;2023-03-15T11:47:02;101746.72;;;13.33;41.70
29909;BME280;36247;51.952;6.146;2023-03-15T11:49:36;101746.16;;;13.51;43.13
29909;BME280;36247;51.952;6.146;2023-03-15T11:52:06;101753.47;;;13.11;45.67
29909;BME280;36247;51.952;6.146;2023-03-15T11:54:32;101749.63;;;12.95;44.37
29909;BME280;36247;51.952;6.146;2023-03-15T11:59:31;101744.69;;;13.70;44.26
29909;BME280;36247;51.952;6.146;2023-03-15T12:07:02;101736.75;;;12.70;45.22
29909;BME280;36247;51.952;6.146;2023-03-15T12:11:59;101721.88;;;13.31;43.94
29909;BME280;36247;51.952;6.146;2023-03-15T12:14:29;101729.84;;;13.31;46.12
29909;BME280;36247;51.952;6.146;2023-03-15T12:20:07;101722.16;;;13.48;45.28
29909;BME280;36247;51.952;6.146;2023-03-15T12:22:34;101716.50;;;14.52;47.26
29909;BME280;36247;51.952;6.146;2023-03-15T12:27:51;101730.28;;;12.58;44.66
29909;BME280;36247;51.952;6.146;2023-03-15T12:30:41;101732.44;;;11.55;48.48
29909;BME280;36247;51.952;6.146;2023-03-15T12:33:16;101735.47;;;11.71;47.75
29909;BME280;36247;51.952;6.146;2023-03-15T12:35:42;101727.06;;;12.30;46.32
29909;BME280;36247;51.952;6.146;2023-03-15T12:38:15;101732.13;;;11.06;47.80
29909;BME280;36247;51.952;6.146;2023-03-15T12:40:56;101743.41;;;10.99;48.10
29909;BME280;36247;51.952;6.146;2023-03-15T12:46:01;101742.97;;;11.16;46.00
29909;BME280;36247;51.952;6.146;2023-03-15T12:48:27;101735.84;;;11.15;45.79
29909;BME280;36247;51.952;6.146;2023-03-15T12:51:02;101735.75;;;11.45;46.62
29909;BME280;36247;51.952;6.146;2023-03-15T12:56:32;101744.94;;;10.91;45.85
29909;BME280;36247;51.952;6.146;2023-03-15T12:59:20;101734.25;;;10.88;44.30
29909;BME280;36247;51.952;6.146;2023-03-15T13:01:49;101734.69;;;10.39;45.49
29909;BME280;36247;51.952;6.146;2023-03-15T13:04:15;101735.25;;;10.91;47.25
29909;BME280;36247;51.952;6.146;2023-03-15T13:06:54;101743.09;;;11.57;47.09
29909;BME280;36247;51.952;6.146;2023-03-15T13:12:32;101736.69;;;11.14;45.80
29909;BME280;36247;51.952;6.146;2023-03-15T13:17:34;101747.00;;;10.68;45.90
29909;BME280;36247;51.952;6.146;2023-03-15T13:25:57;101734.13;;;11.52;45.85
29909;BME280;36247;51.952;6.146;2023-03-15T13:28:55;101738.47;;;11.86;45.32
29909;BME280;36247;51.952;6.146;2023-03-15T13:31:27;101751.38;;;12.07;46.15
29909;BME280;36247;51.952;6.146;2023-03-15T13:33:56;101745.28;;;12.11;45.99
29909;BME280;36247;51.952;6.146;2023-03-15T13:36:46;101745.78;;;11.95;44.44
29909;BME280;36247;51.952;6.146;2023-03-15T13:39:21;101738.53;;;11.89;44.49
29909;BME280;36247;51.952;6.146;2023-03-15T13:42:01;101727.56;;;12.55;42.86
29909;BME280;36247;51.952;6.146;2023-03-15T13:44:29;101734.78;;;12.17;41.29
29909;BME280;36247;51.952;6.146;2023-03-15T13:46:56;101731.75;;;12.87;41.81
29909;BME280;36247;51.952;6.146;2023-03-15T13:49:22;101735.31;;;12.90;42.86
29909;BME280;36247;51.952;6.146;2023-03-15T13:51:50;101738.88;;;12.88;42.11
29909;BME280;36247;51.952;6.146;2023-03-15T13:54:23;101750.88;;;13.69;39.96
29909;BME280;36247;51.952;6.146;2023-03-15T13:57:10;101743.00;;;14.38;41.19
29909;BME280;36247;51.952;6.146;2023-03-15T13:59:43;101737.16;;;14.68;38.10